createdAt,value
2022-12-11T00:02:19.888Z,96.46
2022-12-11T00:04:46.697Z,96.38
2022-12-11T00:07:13.634Z,96.70
2022-12-11T00:09:40.485Z,96.33
2022-12-11T00:12:07.696Z,96.50
2022-12-11T00:14:34.430Z,96.67
2022-12-11T00:17:01.322Z,96.51
2022-12-11T00:19:28.288Z,96.49
2022-12-11T00:21:55.196Z,96.60
2022-12-11T00:24:22.025Z,96.48
2022-12-11T00:26:48.895Z,96.47
2022-12-11T00:29:15.713Z,96.47
2022-12-11T00:31:42.693Z,96.70
2022-12-11T00:34:09.635Z,96.64
2022-12-11T00:36:36.445Z,96.45
2022-12-11T00:39:03.334Z,96.46
2022-12-11T00:41:30.344Z,96.69
2022-12-11T00:43:57.243Z,96.55
2022-12-11T00:46:24.268Z,96.58
2022-12-11T00:48:51.234Z,96.46
2022-12-11T00:51:18.128Z,96.50
2022-12-11T00:53:44.914Z,96.53
2022-12-11T00:56:13.537Z,96.59
2022-12-11T00:58:40.703Z,96.73
2022-12-11T01:01:12.213Z,96.72
2022-12-11T01:03:39.184Z,96.68
2022-12-11T01:06:06.509Z,96.44
2022-12-11T01:08:38.362Z,96.51
2022-12-11T01:11:07.015Z,96.71
2022-12-11T01:13:33.999Z,96.49
2022-12-11T01:16:05.656Z,96.39
2022-12-11T01:18:32.519Z,96.38
2022-12-11T01:20:59.290Z,96.35
2022-12-11T01:23:26.134Z,96.38
2022-12-11T01:25:52.865Z,96.41
2022-12-11T01:28:19.777Z,96.57
2022-12-11T01:30:46.673Z,96.66
2022-12-11T01:33:13.575Z,96.49
2022-12-11T01:35:40.669Z,96.51
2022-12-11T01:38:07.504Z,96.75
2022-12-11T01:40:34.223Z,96.58
2022-12-11T01:43:01.088Z,96.67
2022-12-11T01:45:29.755Z,96.62
2022-12-11T01:48:08.485Z,96.63
2022-12-11T01:50:38.816Z,96.62
2022-12-11T01:53:08.264Z,96.52
2022-12-11T01:55:35.824Z,96.70
2022-12-11T01:58:03.448Z,96.75
2022-12-11T02:00:30.385Z,96.77
2022-12-11T02:02:57.585Z,96.63
2022-12-11T02:05:24.565Z,96.52
2022-12-11T02:07:54.417Z,96.75
2022-12-11T02:10:23.824Z,96.75
2022-12-11T02:12:53.628Z,96.69
2022-12-11T02:15:38.263Z,96.76
2022-12-11T02:18:17.626Z,96.67
2022-12-11T02:20:55.446Z,96.63
2022-12-11T02:23:25.289Z,96.69
2022-12-11T02:25:52.896Z,96.76
2022-12-11T02:28:28.815Z,96.83
2022-12-11T02:30:59.225Z,96.72
2022-12-11T02:33:33.354Z,96.55
2022-12-11T02:36:01.285Z,96.57
2022-12-11T02:38:33.745Z,96.72
2022-12-11T02:41:00.915Z,96.48
2022-12-11T02:43:28.096Z,96.65
2022-12-11T02:45:55.905Z,96.77
2022-12-11T02:48:24.449Z,96.43
2022-12-11T02:50:52.840Z,96.39
2022-12-11T02:53:22.026Z,96.63
2022-12-11T02:55:52.255Z,96.40
2022-12-11T02:58:22.052Z,96.39
2022-12-11T03:00:49.437Z,96.47
2022-12-11T03:03:16.460Z,96.40
2022-12-11T03:05:43.718Z,96.39
2022-12-11T03:08:10.540Z,96.50
2022-12-11T03:10:37.586Z,96.57
2022-12-11T03:13:04.833Z,96.68
2022-12-11T03:15:47.005Z,96.59
2022-12-11T03:18:13.810Z,96.61
2022-12-11T03:21:12.934Z,96.90
2022-12-11T03:23:39.773Z,96.85
2022-12-11T03:26:09.059Z,96.97
2022-12-11T03:28:45.748Z,96.87
2022-12-11T03:31:15.317Z,96.89
2022-12-11T03:33:44.692Z,96.91
2022-12-11T03:36:14.749Z,97.01
2022-12-11T03:38:49.220Z,96.99
2022-12-11T03:41:18.589Z,97.00
2022-12-11T03:43:46.155Z,96.97
2022-12-11T03:46:14.481Z,96.92
2022-12-11T03:48:44.003Z,96.79
2022-12-11T03:51:10.833Z,96.98
2022-12-11T03:53:38.724Z,96.88
2022-12-11T03:56:06.495Z,96.82
2022-12-11T03:58:33.527Z,96.83
2022-12-11T04:01:00.365Z,96.80
2022-12-11T04:03:27.158Z,96.83
2022-12-11T04:05:55.752Z,97.03
2022-12-11T04:08:22.806Z,96.76
2022-12-11T04:11:10.229Z,96.95
2022-12-11T04:13:38.248Z,96.97
2022-12-11T04:16:05.089Z,96.94
2022-12-11T04:18:50.653Z,97.02
2022-12-11T04:21:39.512Z,96.67
2022-12-11T04:24:16.786Z,96.56
2022-12-11T04:26:44.544Z,96.68
2022-12-11T04:29:11.314Z,96.54
2022-12-11T04:31:38.245Z,96.68
2022-12-11T04:34:05.217Z,96.84
2022-12-11T04:36:32.046Z,96.84
2022-12-11T04:38:58.884Z,96.77
2022-12-11T04:41:25.763Z,96.88
2022-12-11T04:43:52.608Z,96.80
2022-12-11T04:46:23.349Z,96.80
2022-12-11T04:48:56.807Z,96.64
2022-12-11T04:51:24.346Z,96.71
2022-12-11T04:53:51.136Z,96.85
2022-12-11T04:56:18.052Z,96.71
2022-12-11T04:58:45.345Z,96.78
2022-12-11T05:01:14.363Z,96.57
2022-12-11T05:03:41.367Z,96.54
2022-12-11T05:06:09.424Z,96.53
2022-12-11T05:08:37.239Z,96.79
2022-12-11T05:11:06.367Z,96.75
2022-12-11T05:13:33.559Z,96.83
2022-12-11T05:16:00.491Z,96.71
2022-12-11T05:18:27.322Z,96.60
2022-12-11T05:21:01.717Z,96.68
2022-12-11T05:23:29.336Z,96.54
2022-12-11T05:25:57.496Z,96.58
2022-12-11T05:28:25.570Z,96.82
2022-12-11T05:31:08.902Z,96.69
2022-12-11T05:33:36.024Z,96.83
2022-12-11T05:36:02.824Z,96.96
2022-12-11T05:38:29.703Z,96.87
2022-12-11T05:41:00.862Z,97.03
2022-12-11T05:43:29.216Z,97.00
2022-12-11T05:45:56.454Z,97.15
2022-12-11T05:48:23.325Z,97.21
2022-12-11T05:50:56.915Z,96.90
2022-12-11T05:53:24.379Z,96.87
2022-12-11T05:55:51.287Z,97.21
2022-12-11T05:58:19.317Z,96.84
2022-12-11T06:00:46.247Z,97.02
2022-12-11T06:03:13.155Z,97.02
2022-12-11T06:05:40.685Z,96.82
2022-12-11T06:08:07.664Z,96.79
2022-12-11T06:10:34.455Z,96.78
2022-12-11T06:13:01.927Z,96.86
2022-12-11T06:15:28.725Z,96.82
2022-12-11T06:17:55.555Z,96.57
2022-12-11T06:20:22.365Z,96.79
2022-12-11T06:22:49.216Z,96.96
2022-12-11T06:25:16.085Z,96.96
2022-12-11T06:27:42.864Z,96.83
2022-12-11T06:30:09.987Z,96.91
2022-12-11T06:32:36.980Z,96.68
2022-12-11T06:35:03.849Z,96.65
2022-12-11T06:37:30.705Z,96.60
2022-12-11T06:39:57.395Z,96.56
2022-12-11T06:42:24.262Z,96.63
2022-12-11T06:44:51.106Z,96.63
2022-12-11T06:47:18.006Z,96.64
2022-12-11T06:49:44.796Z,96.95
2022-12-11T06:52:16.632Z,96.83
2022-12-11T06:54:45.216Z,97.04
2022-12-11T06:57:12.359Z,96.80
2022-12-11T06:59:39.234Z,96.87
2022-12-11T07:02:06.035Z,96.73
2022-12-11T07:04:32.905Z,96.79
2022-12-11T07:06:59.674Z,96.80
2022-12-11T07:09:26.514Z,96.95
2022-12-11T07:11:53.489Z,96.77
2022-12-11T07:14:21.145Z,96.72
2022-12-11T07:16:48.046Z,96.77
2022-12-11T07:19:14.947Z,96.92
2022-12-11T07:21:41.935Z,96.97
2022-12-11T07:24:09.095Z,96.87
2022-12-11T07:26:35.846Z,96.87
2022-12-11T07:29:02.862Z,96.90
2022-12-11T07:31:30.147Z,97.03
2022-12-11T07:33:58.287Z,97.10
2022-12-11T07:36:25.597Z,96.93
2022-12-11T07:38:53.167Z,96.81
2022-12-11T07:41:20.004Z,96.77
2022-12-11T07:43:53.086Z,96.73
2022-12-11T07:46:21.766Z,96.93
2022-12-11T07:48:49.188Z,96.68
2022-12-11T07:51:23.075Z,96.76
2022-12-11T07:53:50.372Z,96.97
2022-12-11T07:56:17.654Z,97.10
2022-12-11T07:58:44.958Z,96.94
2022-12-11T08:01:19.743Z,96.95
2022-12-11T08:03:47.264Z,96.99
2022-12-11T08:06:14.409Z,97.06
2022-12-11T08:08:41.835Z,97.08
2022-12-11T08:11:10.759Z,97.09
2022-12-11T08:13:38.646Z,96.77
2022-12-11T08:16:06.577Z,96.99
2022-12-11T08:18:35.118Z,96.77
2022-12-11T08:21:07.783Z,96.97
2022-12-11T08:23:35.481Z,96.74
2022-12-11T08:26:03.224Z,96.94
2022-12-11T08:28:30.747Z,96.77
2022-12-11T08:30:57.769Z,96.63
2022-12-11T08:33:25.034Z,96.86
2022-12-11T08:35:51.936Z,96.52
2022-12-11T08:38:23.806Z,96.61
2022-12-11T08:40:52.223Z,96.66
2022-12-11T08:43:19.072Z,96.62
2022-12-11T08:45:46.497Z,96.55
2022-12-11T08:48:13.344Z,96.49
2022-12-11T08:50:40.253Z,96.70
2022-12-11T08:53:07.267Z,96.57
2022-12-11T08:55:34.316Z,96.56
2022-12-11T08:58:01.113Z,96.37
2022-12-11T09:00:28.011Z,96.29
2022-12-11T09:02:54.811Z,96.39
2022-12-11T09:05:21.654Z,96.45
2022-12-11T09:07:48.543Z,96.37
2022-12-11T09:10:15.607Z,96.21
2022-12-11T09:12:42.895Z,96.20
2022-12-11T09:15:10.266Z,95.97
2022-12-11T09:17:38.292Z,96.27
2022-12-11T09:20:06.287Z,96.21
2022-12-11T09:22:34.258Z,96.26
2022-12-11T09:25:01.051Z,96.05
2022-12-11T09:27:28.055Z,95.91
2022-12-11T09:29:54.945Z,95.93
2022-12-11T09:32:21.803Z,95.76
2022-12-11T09:34:50.746Z,95.80
2022-12-11T09:37:19.742Z,95.60
2022-12-11T09:39:46.475Z,95.85
2022-12-11T09:42:32.733Z,97.20
2022-12-11T09:45:02.025Z,98.27
2022-12-11T09:47:34.756Z,98.77
2022-12-11T09:50:10.686Z,98.83
2022-12-11T09:52:46.626Z,98.99
2022-12-11T09:55:16.287Z,99.03
2022-12-11T09:57:43.051Z,98.94
2022-12-11T10:00:11.530Z,98.64
2022-12-11T10:03:13.756Z,98.92
2022-12-11T10:06:04.220Z,98.79
2022-12-11T10:08:57.866Z,98.51
2022-12-11T10:11:27.831Z,98.66
2022-12-11T10:14:13.547Z,98.29
2022-12-11T10:16:52.212Z,98.27
2022-12-11T10:19:22.129Z,98.36
2022-12-11T10:21:50.184Z,98.15
2022-12-11T10:24:40.774Z,98.37
2022-12-11T10:27:33.316Z,98.00
2022-12-11T10:30:03.325Z,97.86
2022-12-11T10:32:34.573Z,98.05
2022-12-11T10:35:03.006Z,98.07
2022-12-11T10:37:29.783Z,97.98
2022-12-11T10:39:56.656Z,97.57
2022-12-11T10:42:23.929Z,97.59
2022-12-11T10:44:58.973Z,97.34
2022-12-11T10:47:26.048Z,97.32
2022-12-11T10:49:58.447Z,97.38
2022-12-11T10:52:27.905Z,97.14
2022-12-11T10:54:56.638Z,96.84
2022-12-11T10:57:29.565Z,96.95
2022-12-11T10:59:56.527Z,96.58
2022-12-11T11:02:25.636Z,96.78
2022-12-11T11:04:53.646Z,96.77
2022-12-11T11:07:28.916Z,96.10
2022-12-11T11:10:22.306Z,95.98
2022-12-11T11:12:50.037Z,96.14
2022-12-11T11:15:22.878Z,96.13
2022-12-11T11:17:56.055Z,96.09
2022-12-11T11:20:28.124Z,96.06
2022-12-11T11:23:00.247Z,95.80
2022-12-11T11:25:28.353Z,95.73
2022-12-11T11:27:56.859Z,96.00
2022-12-11T11:30:28.884Z,95.84
2022-12-11T11:32:57.413Z,95.68
2022-12-11T11:35:26.138Z,95.63
2022-12-11T11:38:11.926Z,95.36
2022-12-11T11:40:41.384Z,95.15
2022-12-11T11:43:08.213Z,95.24
2022-12-11T11:45:41.338Z,95.11
2022-12-11T11:48:27.235Z,94.95
2022-12-11T11:50:54.685Z,94.80
2022-12-11T11:53:24.917Z,94.72
2022-12-11T11:56:02.206Z,94.57
2022-12-11T11:58:44.437Z,94.61
2022-12-11T12:01:19.124Z,94.67
2022-12-11T12:03:47.027Z,94.62
2022-12-11T12:06:29.248Z,94.49
2022-12-11T12:08:56.495Z,94.24
2022-12-11T12:11:26.194Z,94.12
2022-12-11T12:14:29.189Z,93.86
2022-12-11T12:17:01.592Z,93.79
2022-12-11T12:19:47.202Z,93.87
2022-12-11T12:22:23.356Z,93.97
2022-12-11T12:24:50.267Z,94.15
2022-12-11T12:27:52.796Z,94.38
2022-12-11T12:30:23.342Z,94.39
2022-12-11T12:33:09.490Z,94.48
2022-12-11T12:35:43.607Z,94.72
2022-12-11T12:38:14.697Z,94.79
2022-12-11T12:41:00.956Z,94.68
2022-12-11T12:43:36.892Z,94.67
2022-12-11T12:46:22.528Z,95.15
2022-12-11T12:48:51.464Z,95.20
2022-12-11T12:51:18.646Z,95.30
2022-12-11T12:53:48.634Z,95.47
2022-12-11T12:56:16.226Z,95.44
2022-12-11T12:58:44.058Z,95.63
2022-12-11T13:01:24.687Z,95.84
2022-12-11T13:03:55.335Z,95.78
2022-12-11T13:06:37.314Z,95.63
2022-12-11T13:09:30.625Z,95.73
2022-12-11T13:12:00.534Z,95.71
2022-12-11T13:14:30.164Z,95.77
2022-12-11T13:17:16.317Z,96.08
2022-12-11T13:19:43.655Z,95.84
2022-12-11T13:22:13.533Z,96.10
2022-12-11T13:24:59.746Z,96.06
2022-12-11T13:27:36.286Z,96.33
2022-12-11T13:30:06.813Z,96.47
2022-12-11T13:32:34.344Z,96.39
2022-12-11T13:35:05.648Z,96.48
2022-12-11T13:37:33.238Z,96.52
2022-12-11T13:40:01.065Z,96.53
2022-12-11T13:42:46.946Z,96.43
2022-12-11T13:45:43.586Z,96.50
2022-12-11T13:48:18.197Z,96.70
2022-12-11T13:50:46.318Z,96.76
2022-12-11T13:53:17.220Z,96.60
2022-12-11T13:55:45.415Z,96.69
2022-12-11T13:58:16.936Z,96.73
2022-12-11T14:00:52.886Z,96.82
2022-12-11T14:03:20.126Z,96.69
2022-12-11T14:05:46.953Z,96.85
2022-12-11T14:08:20.846Z,96.79
2022-12-11T14:10:52.434Z,96.91
2022-12-11T14:13:25.418Z,96.87
2022-12-11T14:15:53.083Z,96.85
2022-12-11T14:18:31.994Z,96.93
2022-12-11T14:21:01.905Z,97.07
2022-12-11T14:23:30.522Z,96.82
2022-12-11T14:25:57.940Z,96.90
2022-12-11T14:28:28.532Z,97.01
2022-12-11T14:30:58.274Z,97.08
2022-12-11T14:33:28.604Z,97.11
2022-12-11T14:35:56.256Z,97.23
2022-12-11T14:38:27.148Z,97.11
2022-12-11T14:40:58.253Z,97.22
2022-12-11T14:43:34.494Z,97.31
2022-12-11T14:46:04.884Z,97.29
2022-12-11T14:48:36.655Z,97.15
2022-12-11T14:51:05.359Z,97.41
2022-12-11T14:53:37.935Z,97.43
2022-12-11T14:56:06.875Z,97.27
2022-12-11T14:58:38.036Z,97.22
2022-12-11T15:01:07.221Z,97.46
2022-12-11T15:03:35.465Z,97.37
2022-12-11T15:06:03.656Z,97.55
2022-12-11T15:08:34.217Z,97.53
2022-12-11T15:11:01.255Z,97.66
2022-12-11T15:13:28.214Z,97.59
2022-12-11T15:15:56.300Z,97.81
2022-12-11T15:18:25.684Z,97.79
2022-12-11T15:20:54.596Z,97.92
2022-12-11T15:23:21.473Z,97.72
2022-12-11T15:25:51.975Z,98.02
2022-12-11T15:28:27.683Z,97.84
2022-12-11T15:30:59.537Z,97.99
2022-12-11T15:33:32.509Z,97.86
2022-12-11T15:36:05.438Z,97.83
2022-12-11T15:38:34.002Z,97.92
2022-12-11T15:41:01.199Z,98.03
2022-12-11T15:43:29.066Z,97.96
2022-12-11T15:45:55.916Z,98.20
2022-12-11T15:48:23.000Z,98.11
2022-12-11T15:50:49.807Z,98.24
2022-12-11T15:53:16.766Z,98.08
2022-12-11T15:55:43.594Z,98.16
2022-12-11T15:58:14.415Z,98.25
2022-12-11T16:00:41.213Z,98.28
2022-12-11T16:03:09.776Z,98.33
2022-12-11T16:05:36.605Z,98.27
2022-12-11T16:08:03.434Z,98.36
2022-12-11T16:10:32.092Z,98.64
2022-12-11T16:12:59.740Z,98.45
2022-12-11T16:15:27.826Z,98.68
2022-12-11T16:18:05.022Z,98.58
2022-12-11T16:20:32.724Z,98.62
2022-12-11T16:22:59.951Z,98.66
2022-12-11T16:25:27.514Z,98.53
2022-12-11T16:27:58.412Z,98.64
2022-12-11T16:30:26.323Z,98.38
2022-12-11T16:32:53.576Z,98.64
2022-12-11T16:35:21.412Z,98.61
2022-12-11T16:37:54.223Z,98.59
2022-12-11T16:40:21.795Z,98.57
2022-12-11T16:42:50.089Z,98.71
2022-12-11T16:45:19.266Z,98.68
2022-12-11T16:47:46.545Z,98.72
2022-12-11T16:50:15.775Z,98.86
2022-12-11T16:52:43.506Z,98.72
2022-12-11T16:55:12.094Z,99.07
2022-12-11T16:57:39.304Z,99.04
2022-12-11T17:00:08.985Z,99.22
2022-12-11T17:02:36.948Z,99.25
2022-12-11T17:05:04.136Z,99.35
2022-12-11T17:07:34.055Z,99.20
2022-12-11T17:10:02.955Z,99.08
2022-12-11T17:12:33.585Z,99.23
2022-12-11T17:15:01.355Z,99.16
2022-12-11T17:17:28.816Z,99.32
2022-12-11T17:19:56.420Z,99.27
2022-12-11T17:22:23.419Z,99.46
2022-12-11T17:24:51.475Z,99.45
2022-12-11T17:27:18.548Z,99.55
2022-12-11T17:29:47.565Z,99.61
2022-12-11T17:32:14.484Z,99.71
2022-12-11T17:34:41.883Z,99.61
2022-12-11T17:37:09.443Z,99.62
2022-12-11T17:39:36.919Z,99.84
2022-12-11T17:42:03.897Z,99.71
2022-12-11T17:44:33.897Z,99.81
2022-12-11T17:47:04.677Z,99.59
2022-12-11T17:49:34.506Z,99.79
2022-12-11T17:52:01.349Z,99.79
2022-12-11T17:54:29.688Z,99.67
2022-12-11T17:56:58.656Z,99.67
2022-12-11T17:59:25.453Z,99.66
2022-12-11T18:01:52.565Z,99.62
2022-12-11T18:04:19.826Z,99.80
2022-12-11T18:06:46.932Z,99.64
2022-12-11T18:09:13.915Z,99.57
2022-12-11T18:11:40.918Z,99.85
2022-12-11T18:14:12.349Z,99.59
2022-12-11T18:16:42.485Z,99.83
2022-12-11T18:19:10.608Z,99.79
2022-12-11T18:21:43.165Z,99.70
2022-12-11T18:24:10.496Z,99.93
2022-12-11T18:26:43.314Z,99.71
2022-12-11T18:29:11.325Z,99.96
2022-12-11T18:31:43.014Z,99.70
2022-12-11T18:34:12.027Z,99.93
2022-12-11T18:36:41.287Z,99.68
2022-12-11T18:39:09.918Z,99.70
2022-12-11T18:41:37.384Z,99.83
2022-12-11T18:44:09.968Z,99.65
2022-12-11T18:46:39.767Z,99.71
2022-12-11T18:49:07.604Z,99.71
2022-12-11T18:51:35.209Z,100.00
2022-12-11T18:54:02.696Z,99.91
2022-12-11T18:56:29.686Z,99.87
2022-12-11T18:58:56.804Z,99.88
2022-12-11T19:01:29.167Z,100.00
2022-12-11T19:04:03.504Z,100.00
2022-12-11T19:06:33.765Z,100.00
2022-12-11T19:09:01.495Z,100.00
2022-12-11T19:11:30.115Z,100.00
2022-12-11T19:13:57.517Z,99.98
2022-12-11T19:16:25.859Z,100.00
2022-12-11T19:18:53.576Z,100.00
2022-12-11T19:21:22.605Z,100.00
2022-12-11T19:23:49.865Z,100.00
2022-12-11T19:26:22.136Z,100.00
2022-12-11T19:28:50.874Z,100.00
2022-12-11T19:31:20.246Z,100.00
2022-12-11T19:33:47.417Z,100.00
2022-12-11T19:36:17.167Z,100.00
2022-12-11T19:38:44.817Z,100.00
2022-12-11T19:41:17.120Z,100.00
2022-12-11T19:43:47.225Z,100.00
2022-12-11T19:46:17.327Z,100.00
2022-12-11T19:48:45.275Z,100.00
2022-12-11T19:51:14.486Z,100.00
2022-12-11T19:53:42.425Z,100.00
2022-12-11T19:56:10.223Z,100.00
2022-12-11T19:58:37.644Z,100.00
2022-12-11T20:01:05.139Z,100.00
2022-12-11T20:03:32.114Z,100.00
2022-12-11T20:06:00.456Z,100.00
2022-12-11T20:08:44.019Z,100.00
2022-12-11T20:11:17.529Z,100.00
2022-12-11T20:13:48.708Z,100.00
2022-12-11T20:16:17.352Z,100.00
2022-12-11T20:18:44.795Z,100.00
2022-12-11T20:21:14.584Z,100.00
2022-12-11T20:23:44.980Z,100.00
2022-12-11T20:26:14.682Z,100.00
2022-12-11T20:28:44.418Z,100.00
2022-12-11T20:31:19.789Z,100.00
2022-12-11T20:33:51.540Z,100.00
2022-12-11T20:36:20.248Z,100.00
2022-12-11T20:38:47.225Z,100.00
2022-12-11T20:41:16.289Z,100.00
2022-12-11T20:43:44.470Z,100.00
2022-12-11T20:46:13.597Z,100.00
2022-12-11T20:48:42.626Z,100.00
2022-12-11T20:51:11.837Z,100.00
2022-12-11T20:53:39.635Z,100.00
2022-12-11T20:56:11.778Z,100.00
2022-12-11T20:58:39.053Z,100.00
2022-12-11T21:01:14.059Z,100.00
2022-12-11T21:03:42.219Z,100.00
2022-12-11T21:06:17.655Z,100.00
2022-12-11T21:08:48.450Z,100.00
2022-12-11T21:11:19.736Z,100.00
2022-12-11T21:13:50.656Z,100.00
2022-12-11T21:16:18.435Z,100.00
2022-12-11T21:18:46.750Z,100.00
2022-12-11T21:21:15.047Z,100.00
2022-12-11T21:23:41.849Z,100.00
2022-12-11T21:26:08.956Z,100.00
2022-12-11T21:28:36.012Z,100.00
2022-12-11T21:31:04.625Z,100.00
2022-12-11T21:33:31.770Z,100.00
2022-12-11T21:35:59.563Z,100.00
2022-12-11T21:38:26.974Z,100.00
2022-12-11T21:40:54.715Z,100.00
2022-12-11T21:43:21.910Z,100.00
2022-12-11T21:46:04.522Z,100.00
2022-12-11T21:48:32.297Z,100.00
2022-12-11T21:51:08.735Z,100.00
2022-12-11T21:53:35.771Z,100.00
2022-12-11T21:56:13.386Z,100.00
2022-12-11T21:58:41.094Z,100.00
2022-12-11T22:01:16.308Z,100.00
2022-12-11T22:03:43.217Z,100.00
2022-12-11T22:06:10.354Z,100.00
2022-12-11T22:08:37.425Z,100.00
2022-12-11T22:11:04.599Z,100.00
2022-12-11T22:13:31.836Z,100.00
2022-12-11T22:15:58.713Z,100.00
2022-12-11T22:18:27.317Z,100.00
2022-12-11T22:20:54.997Z,100.00
2022-12-11T22:23:24.929Z,100.00
2022-12-11T22:25:52.170Z,100.00
2022-12-11T22:28:19.275Z,100.00
2022-12-11T22:30:46.480Z,100.00
2022-12-11T22:33:13.416Z,99.95
2022-12-11T22:35:40.222Z,99.97
2022-12-11T22:38:07.437Z,99.92
2022-12-11T22:40:34.764Z,99.97
2022-12-11T22:43:01.925Z,100.00
2022-12-11T22:45:28.722Z,99.91
2022-12-11T22:47:55.625Z,99.80
2022-12-11T22:50:22.667Z,99.94
2022-12-11T22:52:49.593Z,100.00
2022-12-11T22:55:16.413Z,100.00
2022-12-11T22:57:43.935Z,99.86
2022-12-11T23:00:12.472Z,100.00
2022-12-11T23:02:39.458Z,100.00
2022-12-11T23:05:06.874Z,99.79
2022-12-11T23:07:33.875Z,99.93
2022-12-11T23:10:00.791Z,99.83
2022-12-11T23:12:27.863Z,99.95
2022-12-11T23:14:54.675Z,99.74
2022-12-11T23:17:21.495Z,99.68
2022-12-11T23:19:48.346Z,99.60
2022-12-11T23:22:15.905Z,99.71
2022-12-11T23:24:42.779Z,99.57
2022-12-11T23:27:09.934Z,99.84
2022-12-11T23:29:37.561Z,99.60
2022-12-11T23:32:04.395Z,99.56
2022-12-11T23:34:31.221Z,99.73
2022-12-11T23:36:58.114Z,99.87
2022-12-11T23:39:24.886Z,99.77
2022-12-11T23:41:51.965Z,99.83
2022-12-11T23:44:18.793Z,99.79
2022-12-11T23:46:46.520Z,99.82
2022-12-11T23:49:14.608Z,99.70
2022-12-11T23:51:41.752Z,99.83
2022-12-11T23:54:08.636Z,99.70
2022-12-11T23:56:35.605Z,99.98
2022-12-11T23:59:02.433Z,99.99
